sensor_id;sensor_type;location;lat;lon;timestamp;temperature;humidity
61253;DHT22;47127;47.516;8.596;2022-07-23T00:01:55;23.00;99.90
61253;DHT22;47127;47.516;8.596;2022-07-23T00:04:21;22.90;99.90
61253;DHT22;47127;47.516;8.596;2022-07-23T00:06:46;22.70;99.90
61253;DHT22;47127;47.516;8.596;2022-07-23T00:09:12;22.40;99.90
61253;DHT22;47127;47.516;8.596;2022-07-23T00:11:38;22.40;99.90
61253;DHT22;47127;47.516;8.596;2022-07-23T00:14:03;22.40;99.90
61253;DHT22;47127;47.516;8.596;2022-07-23T00:16:29;22.30;99.90
61253;DHT22;47127;47.516;8.596;2022-07-23T00:18:54;22.30;99.90
61253;DHT22;47127;47.516;8.596;2022-07-23T00:21:20;22.20;99.90
61253;DHT22;47127;47.516;8.596;2022-07-23T00:23:46;22.20;99.90
61253;DHT22;47127;47.516;8.596;2022-07-23T00:26:12;22.30;99.90
61253;DHT22;47127;47.516;8.596;2022-07-23T00:28:37;22.30;99.90
61253;DHT22;47127;47.516;8.596;2022-07-23T00:31:03;22.20;99.90
61253;DHT22;47127;47.516;8.596;2022-07-23T00:33:28;22.30;99.90
61253;DHT22;47127;47.516;8.596;2022-07-23T00:35:54;22.30;99.90
61253;DHT22;47127;47.516;8.596;2022-07-23T00:38:19;22.30;99.90
61253;DHT22;47127;47.516;8.596;2022-07-23T00:40:45;22.40;99.90
61253;DHT22;47127;47.516;8.596;2022-07-23T00:43:11;22.40;99.90
61253;DHT22;47127;47.516;8.596;2022-07-23T00:45:36;22.30;99.90
61253;DHT22;47127;47.516;8.596;2022-07-23T00:48:02;22.30;99.90
61253;DHT22;47127;47.516;8.596;2022-07-23T00:50:28;22.30;99.90
61253;DHT22;47127;47.516;8.596;2022-07-23T00:52:53;22.30;99.90
61253;DHT22;47127;47.516;8.596;2022-07-23T00:55:19;22.40;99.90
61253;DHT22;47127;47.516;8.596;2022-07-23T00:57:45;22.30;99.90
61253;DHT22;47127;47.516;8.596;2022-07-23T01:00:13;22.30;99.90
61253;DHT22;47127;47.516;8.596;2022-07-23T01:02:40;22.20;99.90
61253;DHT22;47127;47.516;8.596;2022-07-23T01:05:06;22.40;99.90
61253;DHT22;47127;47.516;8.596;2022-07-23T01:07:33;22.40;99.90
61253;DHT22;47127;47.516;8.596;2022-07-23T01:09:59;22.50;99.90
61253;DHT22;47127;47.516;8.596;2022-07-23T01:12:25;22.30;99.90
61253;DHT22;47127;47.516;8.596;2022-07-23T01:14:58;22.30;99.90
61253;DHT22;47127;47.516;8.596;2022-07-23T01:17:24;21.90;99.90
61253;DHT22;47127;47.516;8.596;2022-07-23T01:19:50;22.00;99.90
61253;DHT22;47127;47.516;8.596;2022-07-23T01:22:18;22.00;99.90
61253;DHT22;47127;47.516;8.596;2022-07-23T01:24:44;22.10;99.90
61253;DHT22;47127;47.516;8.596;2022-07-23T01:27:10;22.10;99.90
61253;DHT22;47127;47.516;8.596;2022-07-23T01:29:35;22.10;99.90
61253;DHT22;47127;47.516;8.596;2022-07-23T01:32:01;22.20;99.90
61253;DHT22;47127;47.516;8.596;2022-07-23T01:34:26;22.30;99.90
61253;DHT22;47127;47.516;8.596;2022-07-23T01:36:52;22.20;99.90
61253;DHT22;47127;47.516;8.596;2022-07-23T01:39:17;22.30;99.90
61253;DHT22;47127;47.516;8.596;2022-07-23T01:41:43;22.20;99.90
61253;DHT22;47127;47.516;8.596;2022-07-23T01:44:09;22.20;99.90
61253;DHT22;47127;47.516;8.596;2022-07-23T01:46:34;22.10;99.90
61253;DHT22;47127;47.516;8.596;2022-07-23T01:49:00;22.00;99.90
61253;DHT22;47127;47.516;8.596;2022-07-23T01:51:26;21.90;99.90
61253;DHT22;47127;47.516;8.596;2022-07-23T01:53:51;21.80;99.90
61253;DHT22;47127;47.516;8.596;2022-07-23T01:56:17;22.00;99.90
61253;DHT22;47127;47.516;8.596;2022-07-23T01:58:44;22.00;99.90
61253;DHT22;47127;47.516;8.596;2022-07-23T02:01:09;22.00;99.90
61253;DHT22;47127;47.516;8.596;2022-07-23T02:03:35;22.10;99.90
61253;DHT22;47127;47.516;8.596;2022-07-23T02:06:00;22.20;99.90
61253;DHT22;47127;47.516;8.596;2022-07-23T02:08:26;22.20;99.90
61253;DHT22;47127;47.516;8.596;2022-07-23T02:10:52;22.00;99.90
61253;DHT22;47127;47.516;8.596;2022-07-23T02:13:17;22.00;99.90
61253;DHT22;47127;47.516;8.596;2022-07-23T02:15:44;21.90;99.90
61253;DHT22;47127;47.516;8.596;2022-07-23T02:18:09;21.90;99.90
61253;DHT22;47127;47.516;8.596;2022-07-23T02:20:35;22.00;99.90
61253;DHT22;47127;47.516;8.596;2022-07-23T02:23:04;22.00;99.90
61253;DHT22;47127;47.516;8.596;2022-07-23T02:25:29;22.00;99.90
61253;DHT22;47127;47.516;8.596;2022-07-23T02:27:55;21.80;99.90
61253;DHT22;47127;47.516;8.596;2022-07-23T02:30:21;22.00;99.90
61253;DHT22;47127;47.516;8.596;2022-07-23T02:32:46;22.00;99.90
61253;DHT22;47127;47.516;8.596;2022-07-23T02:35:12;22.10;99.90
61253;DHT22;47127;47.516;8.596;2022-07-23T02:37:37;22.10;99.90
61253;DHT22;47127;47.516;8.596;2022-07-23T02:40:03;22.10;99.90
61253;DHT22;47127;47.516;8.596;2022-07-23T02:42:29;22.20;99.90
61253;DHT22;47127;47.516;8.596;2022-07-23T02:44:55;22.20;99.90
61253;DHT22;47127;47.516;8.596;2022-07-23T02:47:20;22.00;99.90
61253;DHT22;47127;47.516;8.596;2022-07-23T02:49:46;21.80;99.90
61253;DHT22;47127;47.516;8.596;2022-07-23T02:52:11;21.60;99.90
61253;DHT22;47127;47.516;8.596;2022-07-23T02:54:37;21.50;99.90
61253;DHT22;47127;47.516;8.596;2022-07-23T02:57:04;21.40;99.90
61253;DHT22;47127;47.516;8.596;2022-07-23T02:59:29;21.30;99.90
61253;DHT22;47127;47.516;8.596;2022-07-23T03:01:55;21.30;99.90
61253;DHT22;47127;47.516;8.596;2022-07-23T03:04:21;21.40;99.90
61253;DHT22;47127;47.516;8.596;2022-07-23T03:06:46;21.50;99.90
61253;DHT22;47127;47.516;8.596;2022-07-23T03:09:12;21.50;99.90
61253;DHT22;47127;47.516;8.596;2022-07-23T03:11:37;21.60;99.90
61253;DHT22;47127;47.516;8.596;2022-07-23T03:14:03;21.50;99.90
61253;DHT22;47127;47.516;8.596;2022-07-23T03:16:28;21.60;99.90
61253;DHT22;47127;47.516;8.596;2022-07-23T03:18:54;21.60;99.90
61253;DHT22;47127;47.516;8.596;2022-07-23T03:21:19;21.70;99.90
61253;DHT22;47127;47.516;8.596;2022-07-23T03:23:45;21.70;99.90
61253;DHT22;47127;47.516;8.596;2022-07-23T03:26:11;21.60;99.90
61253;DHT22;47127;47.516;8.596;2022-07-23T03:28:36;21.70;99.90
61253;DHT22;47127;47.516;8.596;2022-07-23T03:31:02;21.70;99.90
61253;DHT22;47127;47.516;8.596;2022-07-23T03:33:27;21.80;99.90
61253;DHT22;47127;47.516;8.596;2022-07-23T03:35:53;21.80;99.90
61253;DHT22;47127;47.516;8.596;2022-07-23T03:38:19;21.70;99.90
61253;DHT22;47127;47.516;8.596;2022-07-23T03:40:44;21.60;99.90
61253;DHT22;47127;47.516;8.596;2022-07-23T03:43:10;21.60;99.90
61253;DHT22;47127;47.516;8.596;2022-07-23T03:45:35;21.50;99.90
61253;DHT22;47127;47.516;8.596;2022-07-23T03:48:01;21.50;99.90
61253;DHT22;47127;47.516;8.596;2022-07-23T03:50:27;21.50;99.90
61253;DHT22;47127;47.516;8.596;2022-07-23T03:52:52;21.40;99.90
61253;DHT22;47127;47.516;8.596;2022-07-23T03:55:19;21.30;99.90
61253;DHT22;47127;47.516;8.596;2022-07-23T03:57:45;21.30;99.90
61253;DHT22;47127;47.516;8.596;2022-07-23T04:00:11;21.30;99.90
61253;DHT22;47127;47.516;8.596;2022-07-23T04:02:38;21.30;99.90
61253;DHT22;47127;47.516;8.596;2022-07-23T04:05:05;21.30;99.90
61253;DHT22;47127;47.516;8.596;2022-07-23T04:07:31;21.00;99.90
61253;DHT22;47127;47.516;8.596;2022-07-23T04:09:56;20.70;99.90
61253;DHT22;47127;47.516;8.596;2022-07-23T04:12:23;20.70;99.90
61253;DHT22;47127;47.516;8.596;2022-07-23T04:14:49;20.70;99.90
61253;DHT22;47127;47.516;8.596;2022-07-23T04:17:14;20.80;99.90
61253;DHT22;47127;47.516;8.596;2022-07-23T04:19:40;20.80;99.90
61253;DHT22;47127;47.516;8.596;2022-07-23T04:22:10;20.90;99.90
61253;DHT22;47127;47.516;8.596;2022-07-23T04:24:37;20.90;99.90
61253;DHT22;47127;47.516;8.596;2022-07-23T04:27:03;21.00;99.90
61253;DHT22;47127;47.516;8.596;2022-07-23T04:29:29;21.00;99.90
61253;DHT22;47127;47.516;8.596;2022-07-23T04:31:54;21.00;99.90
61253;DHT22;47127;47.516;8.596;2022-07-23T04:34:20;21.00;99.90
61253;DHT22;47127;47.516;8.596;2022-07-23T04:36:46;21.00;99.90
61253;DHT22;47127;47.516;8.596;2022-07-23T04:39:12;21.10;99.90
61253;DHT22;47127;47.516;8.596;2022-07-23T04:41:37;21.20;99.90
61253;DHT22;47127;47.516;8.596;2022-07-23T04:44:03;21.20;99.90
61253;DHT22;47127;47.516;8.596;2022-07-23T04:46:29;21.20;99.90
61253;DHT22;47127;47.516;8.596;2022-07-23T04:48:54;21.10;99.90
61253;DHT22;47127;47.516;8.596;2022-07-23T04:51:20;21.20;99.90
61253;DHT22;47127;47.516;8.596;2022-07-23T04:53:46;21.30;99.90
61253;DHT22;47127;47.516;8.596;2022-07-23T04:56:11;21.30;99.90
61253;DHT22;47127;47.516;8.596;2022-07-23T04:58:37;21.20;99.90
61253;DHT22;47127;47.516;8.596;2022-07-23T05:01:03;21.20;99.90
61253;DHT22;47127;47.516;8.596;2022-07-23T05:03:29;21.20;99.90
61253;DHT22;47127;47.516;8.596;2022-07-23T05:05:54;21.00;99.90
61253;DHT22;47127;47.516;8.596;2022-07-23T05:08:20;21.00;99.90
61253;DHT22;47127;47.516;8.596;2022-07-23T05:10:46;20.90;99.90
61253;DHT22;47127;47.516;8.596;2022-07-23T05:13:14;20.80;99.90
61253;DHT22;47127;47.516;8.596;2022-07-23T05:15:40;20.70;99.90
61253;DHT22;47127;47.516;8.596;2022-07-23T05:18:06;20.70;99.90
61253;DHT22;47127;47.516;8.596;2022-07-23T05:20:31;20.70;99.90
61253;DHT22;47127;47.516;8.596;2022-07-23T05:22:57;20.80;99.90
61253;DHT22;47127;47.516;8.596;2022-07-23T05:25:23;20.80;99.90
61253;DHT22;47127;47.516;8.596;2022-07-23T05:27:49;20.80;99.90
61253;DHT22;47127;47.516;8.596;2022-07-23T05:30:14;20.80;99.90
61253;DHT22;47127;47.516;8.596;2022-07-23T05:32:40;20.80;99.90
61253;DHT22;47127;47.516;8.596;2022-07-23T05:35:06;20.90;99.90
61253;DHT22;47127;47.516;8.596;2022-07-23T05:37:32;20.90;99.90
61253;DHT22;47127;47.516;8.596;2022-07-23T05:40:03;20.90;99.90
61253;DHT22;47127;47.516;8.596;2022-07-23T05:42:28;21.00;99.90
61253;DHT22;47127;47.516;8.596;2022-07-23T05:44:54;21.10;99.90
61253;DHT22;47127;47.516;8.596;2022-07-23T05:47:19;21.10;99.90
61253;DHT22;47127;47.516;8.596;2022-07-23T05:49:45;21.10;99.90
61253;DHT22;47127;47.516;8.596;2022-07-23T05:52:12;21.00;99.90
61253;DHT22;47127;47.516;8.596;2022-07-23T05:54:37;21.00;99.90
61253;DHT22;47127;47.516;8.596;2022-07-23T05:57:03;21.00;99.90
61253;DHT22;47127;47.516;8.596;2022-07-23T05:59:29;21.10;99.90
61253;DHT22;47127;47.516;8.596;2022-07-23T06:01:55;21.10;99.90
61253;DHT22;47127;47.516;8.596;2022-07-23T06:04:21;21.10;99.90
61253;DHT22;47127;47.516;8.596;2022-07-23T06:06:46;21.00;99.90
61253;DHT22;47127;47.516;8.596;2022-07-23T06:09:12;21.10;99.90
61253;DHT22;47127;47.516;8.596;2022-07-23T06:11:39;21.10;99.90
61253;DHT22;47127;47.516;8.596;2022-07-23T06:14:05;21.20;99.90
61253;DHT22;47127;47.516;8.596;2022-07-23T06:16:30;21.20;99.90
61253;DHT22;47127;47.516;8.596;2022-07-23T06:18:56;21.20;99.90
61253;DHT22;47127;47.516;8.596;2022-07-23T06:21:22;21.20;99.90
61253;DHT22;47127;47.516;8.596;2022-07-23T06:23:47;21.20;99.90
61253;DHT22;47127;47.516;8.596;2022-07-23T06:26:13;21.20;99.90
61253;DHT22;47127;47.516;8.596;2022-07-23T06:28:39;21.20;99.90
61253;DHT22;47127;47.516;8.596;2022-07-23T06:31:04;21.20;99.90
61253;DHT22;47127;47.516;8.596;2022-07-23T06:33:30;21.30;99.90
61253;DHT22;47127;47.516;8.596;2022-07-23T06:35:55;21.30;99.90
61253;DHT22;47127;47.516;8.596;2022-07-23T06:38:21;21.20;99.90
61253;DHT22;47127;47.516;8.596;2022-07-23T06:40:46;21.20;99.90
61253;DHT22;47127;47.516;8.596;2022-07-23T06:43:12;21.20;99.90
61253;DHT22;47127;47.516;8.596;2022-07-23T06:45:37;21.10;99.90
61253;DHT22;47127;47.516;8.596;2022-07-23T06:48:03;20.90;99.90
61253;DHT22;47127;47.516;8.596;2022-07-23T06:50:29;20.80;99.90
61253;DHT22;47127;47.516;8.596;2022-07-23T06:52:55;20.60;99.90
61253;DHT22;47127;47.516;8.596;2022-07-23T06:55:20;20.50;99.90
61253;DHT22;47127;47.516;8.596;2022-07-23T06:57:46;20.50;99.90
61253;DHT22;47127;47.516;8.596;2022-07-23T07:00:12;20.40;99.90
61253;DHT22;47127;47.516;8.596;2022-07-23T07:02:37;20.50;99.90
61253;DHT22;47127;47.516;8.596;2022-07-23T07:05:03;20.60;99.90
61253;DHT22;47127;47.516;8.596;2022-07-23T07:07:29;20.70;99.90
61253;DHT22;47127;47.516;8.596;2022-07-23T07:09:54;20.90;99.90
61253;DHT22;47127;47.516;8.596;2022-07-23T07:12:20;21.00;99.90
61253;DHT22;47127;47.516;8.596;2022-07-23T07:14:45;21.20;99.90
61253;DHT22;47127;47.516;8.596;2022-07-23T07:17:11;21.30;99.90
61253;DHT22;47127;47.516;8.596;2022-07-23T07:19:36;21.40;99.90
61253;DHT22;47127;47.516;8.596;2022-07-23T07:22:02;21.50;99.90
61253;DHT22;47127;47.516;8.596;2022-07-23T07:24:28;21.50;99.90
61253;DHT22;47127;47.516;8.596;2022-07-23T07:26:54;21.60;99.90
61253;DHT22;47127;47.516;8.596;2022-07-23T07:29:19;21.60;99.90
61253;DHT22;47127;47.516;8.596;2022-07-23T07:31:45;21.50;99.90
61253;DHT22;47127;47.516;8.596;2022-07-23T07:34:10;21.40;99.90
61253;DHT22;47127;47.516;8.596;2022-07-23T07:36:36;21.30;99.90
61253;DHT22;47127;47.516;8.596;2022-07-23T07:39:04;21.40;99.90
61253;DHT22;47127;47.516;8.596;2022-07-23T07:41:30;21.40;99.90
61253;DHT22;47127;47.516;8.596;2022-07-23T07:43:56;21.50;99.90
61253;DHT22;47127;47.516;8.596;2022-07-23T07:46:21;21.50;99.90
61253;DHT22;47127;47.516;8.596;2022-07-23T07:48:49;21.50;99.90
61253;DHT22;47127;47.516;8.596;2022-07-23T07:51:15;21.50;99.90
61253;DHT22;47127;47.516;8.596;2022-07-23T07:53:41;21.50;99.90
61253;DHT22;47127;47.516;8.596;2022-07-23T07:56:06;21.50;99.90
61253;DHT22;47127;47.516;8.596;2022-07-23T07:58:32;21.50;99.90
61253;DHT22;47127;47.516;8.596;2022-07-23T08:00:58;21.40;99.90
61253;DHT22;47127;47.516;8.596;2022-07-23T08:03:23;21.30;99.90
61253;DHT22;47127;47.516;8.596;2022-07-23T08:05:49;21.20;99.90
61253;DHT22;47127;47.516;8.596;2022-07-23T08:08:14;21.10;99.90
61253;DHT22;47127;47.516;8.596;2022-07-23T08:10:41;21.20;99.90
61253;DHT22;47127;47.516;8.596;2022-07-23T08:13:07;21.20;99.90
61253;DHT22;47127;47.516;8.596;2022-07-23T08:15:33;21.30;99.90
61253;DHT22;47127;47.516;8.596;2022-07-23T08:17:59;21.40;99.90
61253;DHT22;47127;47.516;8.596;2022-07-23T08:20:25;21.50;99.90
61253;DHT22;47127;47.516;8.596;2022-07-23T08:23:08;21.50;99.90
61253;DHT22;47127;47.516;8.596;2022-07-23T08:25:36;21.60;99.90
61253;DHT22;47127;47.516;8.596;2022-07-23T08:28:05;21.80;99.90
61253;DHT22;47127;47.516;8.596;2022-07-23T08:30:31;21.90;99.90
61253;DHT22;47127;47.516;8.596;2022-07-23T08:33:02;22.10;99.90
61253;DHT22;47127;47.516;8.596;2022-07-23T08:35:36;22.00;99.90
61253;DHT22;47127;47.516;8.596;2022-07-23T08:38:04;22.10;99.90
61253;DHT22;47127;47.516;8.596;2022-07-23T08:40:31;22.10;99.90
61253;DHT22;47127;47.516;8.596;2022-07-23T08:42:57;22.00;99.90
61253;DHT22;47127;47.516;8.596;2022-07-23T08:45:25;22.00;99.90
61253;DHT22;47127;47.516;8.596;2022-07-23T08:47:56;21.80;99.90
61253;DHT22;47127;47.516;8.596;2022-07-23T08:50:24;21.80;99.90
61253;DHT22;47127;47.516;8.596;2022-07-23T08:52:51;21.80;99.90
61253;DHT22;47127;47.516;8.596;2022-07-23T08:55:18;21.80;99.90
61253;DHT22;47127;47.516;8.596;2022-07-23T08:57:45;21.80;99.90
61253;DHT22;47127;47.516;8.596;2022-07-23T09:00:13;21.80;99.90
61253;DHT22;47127;47.516;8.596;2022-07-23T09:02:43;21.90;99.90
61253;DHT22;47127;47.516;8.596;2022-07-23T09:05:09;21.90;99.90
61253;DHT22;47127;47.516;8.596;2022-07-23T09:07:37;22.00;99.90
61253;DHT22;47127;47.516;8.596;2022-07-23T09:10:10;22.00;99.90
61253;DHT22;47127;47.516;8.596;2022-07-23T09:12:37;22.10;99.90
61253;DHT22;47127;47.516;8.596;2022-07-23T09:15:05;22.30;99.90
61253;DHT22;47127;47.516;8.596;2022-07-23T09:17:38;22.20;99.90
61253;DHT22;47127;47.516;8.596;2022-07-23T09:20:09;22.40;99.90
61253;DHT22;47127;47.516;8.596;2022-07-23T09:22:34;22.50;99.90
61253;DHT22;47127;47.516;8.596;2022-07-23T09:25:18;22.60;99.90
61253;DHT22;47127;47.516;8.596;2022-07-23T09:27:58;22.60;99.90
61253;DHT22;47127;47.516;8.596;2022-07-23T09:30:30;22.60;99.90
61253;DHT22;47127;47.516;8.596;2022-07-23T09:33:11;22.60;99.90
61253;DHT22;47127;47.516;8.596;2022-07-23T09:35:54;22.60;99.90
61253;DHT22;47127;47.516;8.596;2022-07-23T09:38:23;22.60;99.90
61253;DHT22;47127;47.516;8.596;2022-07-23T09:41:07;22.60;99.90
61253;DHT22;47127;47.516;8.596;2022-07-23T09:43:34;22.60;99.90
61253;DHT22;47127;47.516;8.596;2022-07-23T09:46:25;22.70;99.90
61253;DHT22;47127;47.516;8.596;2022-07-23T09:48:55;22.70;99.90
61253;DHT22;47127;47.516;8.596;2022-07-23T09:51:24;22.70;99.90
61253;DHT22;47127;47.516;8.596;2022-07-23T09:54:01;22.50;99.90
61253;DHT22;47127;47.516;8.596;2022-07-23T09:56:28;22.40;99.90
61253;DHT22;47127;47.516;8.596;2022-07-23T09:58:55;22.40;99.90
61253;DHT22;47127;47.516;8.596;2022-07-23T10:01:36;22.40;99.90
61253;DHT22;47127;47.516;8.596;2022-07-23T10:04:02;22.50;99.90
61253;DHT22;47127;47.516;8.596;2022-07-23T10:06:28;22.40;99.90
61253;DHT22;47127;47.516;8.596;2022-07-23T10:08:57;22.40;99.90
61253;DHT22;47127;47.516;8.596;2022-07-23T10:11:24;22.40;99.90
61253;DHT22;47127;47.516;8.596;2022-07-23T10:13:49;22.30;99.90
61253;DHT22;47127;47.516;8.596;2022-07-23T10:16:20;22.30;99.90
61253;DHT22;47127;47.516;8.596;2022-07-23T10:18:47;22.30;99.90
61253;DHT22;47127;47.516;8.596;2022-07-23T10:21:18;22.30;99.90
61253;DHT22;47127;47.516;8.596;2022-07-23T10:23:58;22.30;99.90
61253;DHT22;47127;47.516;8.596;2022-07-23T10:26:54;22.40;99.90
61253;DHT22;47127;47.516;8.596;2022-07-23T10:32:08;22.50;99.90
61253;DHT22;47127;47.516;8.596;2022-07-23T10:35:02;22.60;99.90
61253;DHT22;47127;47.516;8.596;2022-07-23T10:40:26;22.40;99.90
61253;DHT22;47127;47.516;8.596;2022-07-23T10:42:59;22.40;99.90
61253;DHT22;47127;47.516;8.596;2022-07-23T10:45:31;22.40;99.90
61253;DHT22;47127;47.516;8.596;2022-07-23T10:50:38;22.30;99.90
61253;DHT22;47127;47.516;8.596;2022-07-23T10:57:59;22.30;99.90
61253;DHT22;47127;47.516;8.596;2022-07-23T11:00:26;22.40;99.90
61253;DHT22;47127;47.516;8.596;2022-07-23T11:02:57;22.40;99.90
61253;DHT22;47127;47.516;8.596;2022-07-23T11:11:07;22.30;99.90
61253;DHT22;47127;47.516;8.596;2022-07-23T11:18:57;22.30;99.90
61253;DHT22;47127;47.516;8.596;2022-07-23T11:23:58;22.60;99.90
61253;DHT22;47127;47.516;8.596;2022-07-23T11:37:06;24.30;99.90
61253;DHT22;47127;47.516;8.596;2022-07-23T11:39:32;24.50;99.90
61253;DHT22;47127;47.516;8.596;2022-07-23T11:41:59;24.80;99.90
61253;DHT22;47127;47.516;8.596;2022-07-23T11:44:30;25.10;99.90
61253;DHT22;47127;47.516;8.596;2022-07-23T11:49:26;25.50;99.90
61253;DHT22;47127;47.516;8.596;2022-07-23T11:52:09;25.80;99.90
61253;DHT22;47127;47.516;8.596;2022-07-23T11:54:47;25.80;99.90
61253;DHT22;47127;47.516;8.596;2022-07-23T11:57:13;25.80;99.90
61253;DHT22;47127;47.516;8.596;2022-07-23T11:59:39;25.60;99.90
61253;DHT22;47127;47.516;8.596;2022-07-23T12:02:06;25.80;99.90
61253;DHT22;47127;47.516;8.596;2022-07-23T12:04:42;26.00;99.90
61253;DHT22;47127;47.516;8.596;2022-07-23T12:09:54;26.40;99.90
61253;DHT22;47127;47.516;8.596;2022-07-23T12:12:20;26.50;99.90
61253;DHT22;47127;47.516;8.596;2022-07-23T12:17:19;26.40;99.90
61253;DHT22;47127;47.516;8.596;2022-07-23T12:19:47;26.40;99.90
61253;DHT22;47127;47.516;8.596;2022-07-23T12:22:13;26.40;99.90
61253;DHT22;47127;47.516;8.596;2022-07-23T12:25:00;26.80;99.90
61253;DHT22;47127;47.516;8.596;2022-07-23T12:27:26;27.10;99.90
61253;DHT22;47127;47.516;8.596;2022-07-23T12:29:53;27.40;99.90
61253;DHT22;47127;47.516;8.596;2022-07-23T12:32:24;27.40;99.90
61253;DHT22;47127;47.516;8.596;2022-07-23T12:35:02;27.50;99.30
61253;DHT22;47127;47.516;8.596;2022-07-23T12:37:42;27.70;98.60
61253;DHT22;47127;47.516;8.596;2022-07-23T12:40:33;27.80;99.60
61253;DHT22;47127;47.516;8.596;2022-07-23T12:43:11;28.00;97.30
61253;DHT22;47127;47.516;8.596;2022-07-23T12:45:44;28.10;97.00
61253;DHT22;47127;47.516;8.596;2022-07-23T12:50:58;27.20;97.90
61253;DHT22;47127;47.516;8.596;2022-07-23T12:53:25;27.10;97.70
61253;DHT22;47127;47.516;8.596;2022-07-23T12:56:07;27.00;97.80
61253;DHT22;47127;47.516;8.596;2022-07-23T13:01:08;27.10;97.70
61253;DHT22;47127;47.516;8.596;2022-07-23T13:03:38;27.40;97.90
61253;DHT22;47127;47.516;8.596;2022-07-23T13:06:05;27.70;96.80
61253;DHT22;47127;47.516;8.596;2022-07-23T13:08:32;27.60;96.90
61253;DHT22;47127;47.516;8.596;2022-07-23T13:10:59;27.70;96.10
61253;DHT22;47127;47.516;8.596;2022-07-23T13:13:27;27.70;96.00
61253;DHT22;47127;47.516;8.596;2022-07-23T13:15:53;27.80;96.30
61253;DHT22;47127;47.516;8.596;2022-07-23T13:18:20;28.20;95.60
61253;DHT22;47127;47.516;8.596;2022-07-23T13:20:47;28.30;95.70
61253;DHT22;47127;47.516;8.596;2022-07-23T13:23:13;28.30;95.20
61253;DHT22;47127;47.516;8.596;2022-07-23T13:25:39;28.40;96.10
61253;DHT22;47127;47.516;8.596;2022-07-23T13:28:04;28.60;94.90
61253;DHT22;47127;47.516;8.596;2022-07-23T13:30:30;28.80;94.50
61253;DHT22;47127;47.516;8.596;2022-07-23T13:32:56;29.10;93.60
61253;DHT22;47127;47.516;8.596;2022-07-23T13:35:22;29.20;93.40
61253;DHT22;47127;47.516;8.596;2022-07-23T13:37:47;29.50;93.30
61253;DHT22;47127;47.516;8.596;2022-07-23T13:40:13;29.40;93.60
61253;DHT22;47127;47.516;8.596;2022-07-23T13:42:39;29.20;92.80
61253;DHT22;47127;47.516;8.596;2022-07-23T13:45:05;28.60;93.20
61253;DHT22;47127;47.516;8.596;2022-07-23T13:47:31;28.60;93.60
61253;DHT22;47127;47.516;8.596;2022-07-23T13:49:57;28.50;94.20
61253;DHT22;47127;47.516;8.596;2022-07-23T13:52:22;28.20;94.60
61253;DHT22;47127;47.516;8.596;2022-07-23T13:54:49;28.40;94.90
61253;DHT22;47127;47.516;8.596;2022-07-23T13:57:14;28.60;94.30
61253;DHT22;47127;47.516;8.596;2022-07-23T13:59:40;28.90;93.50
61253;DHT22;47127;47.516;8.596;2022-07-23T14:02:06;29.20;93.30
61253;DHT22;47127;47.516;8.596;2022-07-23T14:04:32;29.50;92.10
61253;DHT22;47127;47.516;8.596;2022-07-23T14:06:58;29.90;91.70
61253;DHT22;47127;47.516;8.596;2022-07-23T14:09:24;30.00;91.00
61253;DHT22;47127;47.516;8.596;2022-07-23T14:11:49;30.30;90.90
61253;DHT22;47127;47.516;8.596;2022-07-23T14:14:16;30.60;90.70
61253;DHT22;47127;47.516;8.596;2022-07-23T14:16:42;30.50;88.60
61253;DHT22;47127;47.516;8.596;2022-07-23T14:19:08;30.30;90.40
61253;DHT22;47127;47.516;8.596;2022-07-23T14:21:34;30.80;88.50
61253;DHT22;47127;47.516;8.596;2022-07-23T14:23:59;31.00;89.50
61253;DHT22;47127;47.516;8.596;2022-07-23T14:26:25;30.90;88.70
61253;DHT22;47127;47.516;8.596;2022-07-23T14:28:51;31.00;88.50
61253;DHT22;47127;47.516;8.596;2022-07-23T14:31:17;31.50;86.50
61253;DHT22;47127;47.516;8.596;2022-07-23T14:33:42;31.50;85.60
61253;DHT22;47127;47.516;8.596;2022-07-23T14:36:08;31.70;84.90
61253;DHT22;47127;47.516;8.596;2022-07-23T14:38:33;31.90;82.00
61253;DHT22;47127;47.516;8.596;2022-07-23T14:40:59;31.40;83.20
61253;DHT22;47127;47.516;8.596;2022-07-23T14:43:25;31.00;83.00
61253;DHT22;47127;47.516;8.596;2022-07-23T14:45:50;31.10;82.60
61253;DHT22;47127;47.516;8.596;2022-07-23T14:48:16;30.90;83.80
61253;DHT22;47127;47.516;8.596;2022-07-23T14:50:41;31.00;83.70
61253;DHT22;47127;47.516;8.596;2022-07-23T14:53:07;31.50;81.80
61253;DHT22;47127;47.516;8.596;2022-07-23T14:55:33;31.50;81.70
61253;DHT22;47127;47.516;8.596;2022-07-23T14:57:59;31.40;81.60
61253;DHT22;47127;47.516;8.596;2022-07-23T15:00:25;31.70;79.80
61253;DHT22;47127;47.516;8.596;2022-07-23T15:02:54;31.80;80.10
61253;DHT22;47127;47.516;8.596;2022-07-23T15:05:20;31.70;79.10
61253;DHT22;47127;47.516;8.596;2022-07-23T15:07:45;31.20;77.90
61253;DHT22;47127;47.516;8.596;2022-07-23T15:10:11;30.90;78.90
61253;DHT22;47127;47.516;8.596;2022-07-23T15:12:37;31.00;78.40
61253;DHT22;47127;47.516;8.596;2022-07-23T15:15:03;30.90;79.40
61253;DHT22;47127;47.516;8.596;2022-07-23T15:17:29;30.90;78.40
61253;DHT22;47127;47.516;8.596;2022-07-23T15:19:55;30.90;78.30
61253;DHT22;47127;47.516;8.596;2022-07-23T15:22:21;30.70;78.40
61253;DHT22;47127;47.516;8.596;2022-07-23T15:24:46;31.10;77.30
61253;DHT22;47127;47.516;8.596;2022-07-23T15:27:12;31.30;77.20
61253;DHT22;47127;47.516;8.596;2022-07-23T15:29:37;31.40;76.70
61253;DHT22;47127;47.516;8.596;2022-07-23T15:32:03;31.40;76.90
61253;DHT22;47127;47.516;8.596;2022-07-23T15:34:29;31.60;76.70
61253;DHT22;47127;47.516;8.596;2022-07-23T15:36:55;32.10;75.30
61253;DHT22;47127;47.516;8.596;2022-07-23T15:39:21;32.30;74.00
61253;DHT22;47127;47.516;8.596;2022-07-23T15:41:46;32.40;73.70
61253;DHT22;47127;47.516;8.596;2022-07-23T15:44:12;32.50;72.40
61253;DHT22;47127;47.516;8.596;2022-07-23T15:46:37;32.50;72.20
61253;DHT22;47127;47.516;8.596;2022-07-23T15:49:03;32.70;71.20
61253;DHT22;47127;47.516;8.596;2022-07-23T15:51:29;33.10;71.00
61253;DHT22;47127;47.516;8.596;2022-07-23T15:53:55;32.90;69.10
61253;DHT22;47127;47.516;8.596;2022-07-23T15:56:20;32.80;69.30
61253;DHT22;47127;47.516;8.596;2022-07-23T15:58:46;32.80;68.30
61253;DHT22;47127;47.516;8.596;2022-07-23T16:01:12;32.30;68.10
61253;DHT22;47127;47.516;8.596;2022-07-23T16:03:37;32.10;69.00
61253;DHT22;47127;47.516;8.596;2022-07-23T16:06:04;32.00;67.70
61253;DHT22;47127;47.516;8.596;2022-07-23T16:08:31;32.20;66.90
61253;DHT22;47127;47.516;8.596;2022-07-23T16:10:56;32.00;67.50
61253;DHT22;47127;47.516;8.596;2022-07-23T16:13:24;32.10;68.30
61253;DHT22;47127;47.516;8.596;2022-07-23T16:15:50;32.50;68.00
61253;DHT22;47127;47.516;8.596;2022-07-23T16:18:15;32.40;66.90
61253;DHT22;47127;47.516;8.596;2022-07-23T16:20:42;32.40;67.10